桃園國際機場 - ATIS

METAR RCTP 301530Z 05008KT 9999 FEW020 12/08 Q1020 NOSIG RMK A3013(R)=

站台狀態:Online
最後更新:2023-01-30 23:30:02